sensor_id;sensor_type;location;lat;lon;timestamp;temperature;humidity
5834;DHT22;2943;48.012;10.968;2023-07-29T00:01:40;17.50;99.90
5834;DHT22;2943;48.012;10.968;2023-07-29T00:04:11;17.50;99.90
5834;DHT22;2943;48.012;10.968;2023-07-29T00:06:40;17.50;99.90
5834;DHT22;2943;48.012;10.968;2023-07-29T00:09:09;17.40;99.90
5834;DHT22;2943;48.012;10.968;2023-07-29T00:11:36;17.40;99.90
5834;DHT22;2943;48.012;10.968;2023-07-29T00:14:03;17.40;99.90
5834;DHT22;2943;48.012;10.968;2023-07-29T00:16:30;17.40;99.90
5834;DHT22;2943;48.012;10.968;2023-07-29T00:18:56;17.40;99.90
5834;DHT22;2943;48.012;10.968;2023-07-29T00:21:23;17.40;99.90
5834;DHT22;2943;48.012;10.968;2023-07-29T00:23:49;17.40;99.90
5834;DHT22;2943;48.012;10.968;2023-07-29T00:26:18;17.40;99.90
5834;DHT22;2943;48.012;10.968;2023-07-29T00:28:45;17.30;99.90
5834;DHT22;2943;48.012;10.968;2023-07-29T00:31:12;17.30;99.90
5834;DHT22;2943;48.012;10.968;2023-07-29T00:33:38;17.30;99.90
5834;DHT22;2943;48.012;10.968;2023-07-29T00:36:05;17.30;99.90
5834;DHT22;2943;48.012;10.968;2023-07-29T00:38:32;17.30;99.90
5834;DHT22;2943;48.012;10.968;2023-07-29T00:40:59;17.30;99.90
5834;DHT22;2943;48.012;10.968;2023-07-29T00:43:28;17.30;99.90
5834;DHT22;2943;48.012;10.968;2023-07-29T00:45:54;17.30;99.90
5834;DHT22;2943;48.012;10.968;2023-07-29T00:48:22;17.20;99.90
5834;DHT22;2943;48.012;10.968;2023-07-29T00:50:49;17.20;99.90
5834;DHT22;2943;48.012;10.968;2023-07-29T00:53:16;17.20;99.90
5834;DHT22;2943;48.012;10.968;2023-07-29T00:55:43;17.20;99.90
5834;DHT22;2943;48.012;10.968;2023-07-29T00:58:10;17.20;99.90
5834;DHT22;2943;48.012;10.968;2023-07-29T01:00:38;17.20;99.90
5834;DHT22;2943;48.012;10.968;2023-07-29T01:03:05;17.20;99.90
5834;DHT22;2943;48.012;10.968;2023-07-29T01:05:46;17.20;99.90
5834;DHT22;2943;48.012;10.968;2023-07-29T01:08:17;17.20;99.90
5834;DHT22;2943;48.012;10.968;2023-07-29T01:10:54;17.20;99.90
5834;DHT22;2943;48.012;10.968;2023-07-29T01:13:23;17.10;99.90
5834;DHT22;2943;48.012;10.968;2023-07-29T01:15:54;17.10;99.90
5834;DHT22;2943;48.012;10.968;2023-07-29T01:18:22;17.10;99.90
5834;DHT22;2943;48.012;10.968;2023-07-29T01:20:49;17.10;99.90
5834;DHT22;2943;48.012;10.968;2023-07-29T01:23:23;17.10;99.90
5834;DHT22;2943;48.012;10.968;2023-07-29T01:25:50;17.00;99.90
5834;DHT22;2943;48.012;10.968;2023-07-29T01:28:17;17.00;99.90
5834;DHT22;2943;48.012;10.968;2023-07-29T01:30:43;17.00;99.90
5834;DHT22;2943;48.012;10.968;2023-07-29T01:33:13;17.00;99.90
5834;DHT22;2943;48.012;10.968;2023-07-29T01:35:42;17.00;99.90
5834;DHT22;2943;48.012;10.968;2023-07-29T01:38:09;17.00;99.90
5834;DHT22;2943;48.012;10.968;2023-07-29T01:40:40;16.90;99.90
5834;DHT22;2943;48.012;10.968;2023-07-29T01:43:07;16.90;99.90
5834;DHT22;2943;48.012;10.968;2023-07-29T01:45:34;16.90;99.90
5834;DHT22;2943;48.012;10.968;2023-07-29T01:48:03;16.80;99.90
5834;DHT22;2943;48.012;10.968;2023-07-29T01:50:30;16.80;99.90
5834;DHT22;2943;48.012;10.968;2023-07-29T01:52:57;16.80;99.90
5834;DHT22;2943;48.012;10.968;2023-07-29T01:55:24;16.80;99.90
5834;DHT22;2943;48.012;10.968;2023-07-29T01:57:52;16.70;99.90
5834;DHT22;2943;48.012;10.968;2023-07-29T02:00:19;16.80;99.90
5834;DHT22;2943;48.012;10.968;2023-07-29T02:02:46;16.70;99.90
5834;DHT22;2943;48.012;10.968;2023-07-29T02:05:13;16.70;99.90
5834;DHT22;2943;48.012;10.968;2023-07-29T02:07:39;16.70;99.90
5834;DHT22;2943;48.012;10.968;2023-07-29T02:10:06;16.70;99.90
5834;DHT22;2943;48.012;10.968;2023-07-29T02:12:34;16.60;99.90
5834;DHT22;2943;48.012;10.968;2023-07-29T02:15:02;16.60;99.90
5834;DHT22;2943;48.012;10.968;2023-07-29T02:17:30;16.60;99.90
5834;DHT22;2943;48.012;10.968;2023-07-29T02:19:57;16.50;99.90
5834;DHT22;2943;48.012;10.968;2023-07-29T02:22:23;16.50;99.90
5834;DHT22;2943;48.012;10.968;2023-07-29T02:24:50;16.50;99.90
5834;DHT22;2943;48.012;10.968;2023-07-29T02:27:17;16.60;99.90
5834;DHT22;2943;48.012;10.968;2023-07-29T02:29:43;16.60;99.90
5834;DHT22;2943;48.012;10.968;2023-07-29T02:32:11;16.60;99.90
5834;DHT22;2943;48.012;10.968;2023-07-29T02:34:38;16.50;99.90
5834;DHT22;2943;48.012;10.968;2023-07-29T02:37:05;16.50;99.90
5834;DHT22;2943;48.012;10.968;2023-07-29T02:39:32;16.50;99.90
5834;DHT22;2943;48.012;10.968;2023-07-29T02:42:02;16.50;99.90
5834;DHT22;2943;48.012;10.968;2023-07-29T02:44:28;16.50;99.90
5834;DHT22;2943;48.012;10.968;2023-07-29T02:46:55;16.50;99.90
5834;DHT22;2943;48.012;10.968;2023-07-29T02:49:23;16.50;99.90
5834;DHT22;2943;48.012;10.968;2023-07-29T02:51:50;16.40;99.90
5834;DHT22;2943;48.012;10.968;2023-07-29T02:54:16;16.40;99.90
5834;DHT22;2943;48.012;10.968;2023-07-29T02:56:43;16.40;99.90
5834;DHT22;2943;48.012;10.968;2023-07-29T02:59:10;16.40;99.90
5834;DHT22;2943;48.012;10.968;2023-07-29T03:01:37;16.40;99.90
5834;DHT22;2943;48.012;10.968;2023-07-29T03:04:03;16.40;99.90
5834;DHT22;2943;48.012;10.968;2023-07-29T03:06:31;16.40;99.90
5834;DHT22;2943;48.012;10.968;2023-07-29T03:08:58;16.40;99.90
5834;DHT22;2943;48.012;10.968;2023-07-29T03:11:26;16.40;99.90
5834;DHT22;2943;48.012;10.968;2023-07-29T03:13:52;16.40;99.90
5834;DHT22;2943;48.012;10.968;2023-07-29T03:16:19;16.40;99.90
5834;DHT22;2943;48.012;10.968;2023-07-29T03:18:46;16.40;99.90
5834;DHT22;2943;48.012;10.968;2023-07-29T03:21:13;16.40;99.90
5834;DHT22;2943;48.012;10.968;2023-07-29T03:23:41;16.40;99.90
5834;DHT22;2943;48.012;10.968;2023-07-29T03:26:07;16.40;99.90
5834;DHT22;2943;48.012;10.968;2023-07-29T03:28:36;16.40;99.90
5834;DHT22;2943;48.012;10.968;2023-07-29T03:31:03;16.50;99.90
5834;DHT22;2943;48.012;10.968;2023-07-29T03:33:30;16.50;99.90
5834;DHT22;2943;48.012;10.968;2023-07-29T03:35:57;16.50;99.90
5834;DHT22;2943;48.012;10.968;2023-07-29T03:38:23;16.50;99.90
5834;DHT22;2943;48.012;10.968;2023-07-29T03:40:52;16.50;99.90
5834;DHT22;2943;48.012;10.968;2023-07-29T03:43:18;16.50;99.90
5834;DHT22;2943;48.012;10.968;2023-07-29T03:45:45;16.50;99.90
5834;DHT22;2943;48.012;10.968;2023-07-29T03:48:12;16.50;99.90
5834;DHT22;2943;48.012;10.968;2023-07-29T03:50:39;16.50;99.90
5834;DHT22;2943;48.012;10.968;2023-07-29T03:53:05;16.50;99.90
5834;DHT22;2943;48.012;10.968;2023-07-29T03:55:32;16.50;99.90
5834;DHT22;2943;48.012;10.968;2023-07-29T03:58:00;16.50;99.90
5834;DHT22;2943;48.012;10.968;2023-07-29T04:00:27;16.50;99.90
5834;DHT22;2943;48.012;10.968;2023-07-29T04:02:54;16.60;99.90
5834;DHT22;2943;48.012;10.968;2023-07-29T04:05:21;16.50;99.90
5834;DHT22;2943;48.012;10.968;2023-07-29T04:07:47;16.60;99.90
5834;DHT22;2943;48.012;10.968;2023-07-29T04:10:14;16.60;99.90
5834;DHT22;2943;48.012;10.968;2023-07-29T04:12:41;16.50;99.90
5834;DHT22;2943;48.012;10.968;2023-07-29T04:15:09;16.60;99.90
5834;DHT22;2943;48.012;10.968;2023-07-29T04:17:36;16.60;99.90
5834;DHT22;2943;48.012;10.968;2023-07-29T04:20:03;16.60;99.90
5834;DHT22;2943;48.012;10.968;2023-07-29T04:22:30;16.60;99.90
5834;DHT22;2943;48.012;10.968;2023-07-29T04:24:57;16.60;99.90
5834;DHT22;2943;48.012;10.968;2023-07-29T04:27:24;16.50;99.90
5834;DHT22;2943;48.012;10.968;2023-07-29T04:29:50;16.60;99.90
5834;DHT22;2943;48.012;10.968;2023-07-29T04:32:18;16.50;99.90
5834;DHT22;2943;48.012;10.968;2023-07-29T04:34:45;16.50;99.90
5834;DHT22;2943;48.012;10.968;2023-07-29T04:37:12;16.50;99.90
5834;DHT22;2943;48.012;10.968;2023-07-29T04:39:39;16.60;99.90
5834;DHT22;2943;48.012;10.968;2023-07-29T04:42:06;16.60;99.90
5834;DHT22;2943;48.012;10.968;2023-07-29T04:44:32;16.60;99.90
5834;DHT22;2943;48.012;10.968;2023-07-29T04:46:59;16.70;99.90
5834;DHT22;2943;48.012;10.968;2023-07-29T04:49:27;16.80;99.90
5834;DHT22;2943;48.012;10.968;2023-07-29T04:51:54;16.80;99.90
5834;DHT22;2943;48.012;10.968;2023-07-29T04:54:21;16.80;99.90
5834;DHT22;2943;48.012;10.968;2023-07-29T04:56:47;16.90;99.90
5834;DHT22;2943;48.012;10.968;2023-07-29T04:59:14;16.90;99.90
5834;DHT22;2943;48.012;10.968;2023-07-29T05:01:41;17.00;99.90
5834;DHT22;2943;48.012;10.968;2023-07-29T05:04:08;17.00;99.90
5834;DHT22;2943;48.012;10.968;2023-07-29T05:06:37;17.10;99.90
5834;DHT22;2943;48.012;10.968;2023-07-29T05:09:12;17.10;99.90
5834;DHT22;2943;48.012;10.968;2023-07-29T05:11:39;17.10;99.90
5834;DHT22;2943;48.012;10.968;2023-07-29T05:14:05;17.20;99.90
5834;DHT22;2943;48.012;10.968;2023-07-29T05:16:32;17.20;99.90
5834;DHT22;2943;48.012;10.968;2023-07-29T05:18:59;17.20;99.90
5834;DHT22;2943;48.012;10.968;2023-07-29T05:21:26;17.20;99.90
5834;DHT22;2943;48.012;10.968;2023-07-29T05:23:54;17.10;99.90
5834;DHT22;2943;48.012;10.968;2023-07-29T05:26:21;17.10;99.90
5834;DHT22;2943;48.012;10.968;2023-07-29T05:28:48;17.10;99.90
5834;DHT22;2943;48.012;10.968;2023-07-29T05:31:15;17.20;99.90
5834;DHT22;2943;48.012;10.968;2023-07-29T05:33:42;17.10;99.90
5834;DHT22;2943;48.012;10.968;2023-07-29T05:36:08;17.10;99.90
5834;DHT22;2943;48.012;10.968;2023-07-29T05:38:35;17.20;99.90
5834;DHT22;2943;48.012;10.968;2023-07-29T05:41:03;17.20;99.90
5834;DHT22;2943;48.012;10.968;2023-07-29T05:43:30;17.20;99.90
5834;DHT22;2943;48.012;10.968;2023-07-29T05:45:57;17.20;99.90
5834;DHT22;2943;48.012;10.968;2023-07-29T05:48:23;17.30;99.90
5834;DHT22;2943;48.012;10.968;2023-07-29T05:50:50;17.30;99.90
5834;DHT22;2943;48.012;10.968;2023-07-29T05:53:17;17.30;99.90
5834;DHT22;2943;48.012;10.968;2023-07-29T05:55:44;17.30;99.90
5834;DHT22;2943;48.012;10.968;2023-07-29T05:58:12;17.40;99.90
5834;DHT22;2943;48.012;10.968;2023-07-29T06:00:39;17.40;99.90
5834;DHT22;2943;48.012;10.968;2023-07-29T06:03:06;17.40;99.90
5834;DHT22;2943;48.012;10.968;2023-07-29T06:05:33;17.40;99.90
5834;DHT22;2943;48.012;10.968;2023-07-29T06:07:59;17.40;99.90
5834;DHT22;2943;48.012;10.968;2023-07-29T06:10:26;17.50;99.90
5834;DHT22;2943;48.012;10.968;2023-07-29T06:12:53;17.40;99.90
5834;DHT22;2943;48.012;10.968;2023-07-29T06:15:21;17.40;99.90
5834;DHT22;2943;48.012;10.968;2023-07-29T06:17:48;17.30;99.90
5834;DHT22;2943;48.012;10.968;2023-07-29T06:20:15;17.30;99.90
5834;DHT22;2943;48.012;10.968;2023-07-29T06:22:41;17.20;99.90
5834;DHT22;2943;48.012;10.968;2023-07-29T06:25:08;17.20;99.90
5834;DHT22;2943;48.012;10.968;2023-07-29T06:27:35;17.20;99.90
5834;DHT22;2943;48.012;10.968;2023-07-29T06:30:02;17.20;99.90
5834;DHT22;2943;48.012;10.968;2023-07-29T06:32:30;17.20;99.90
5834;DHT22;2943;48.012;10.968;2023-07-29T06:34:57;17.10;99.90
5834;DHT22;2943;48.012;10.968;2023-07-29T06:37:24;17.10;99.90
5834;DHT22;2943;48.012;10.968;2023-07-29T06:39:51;17.10;99.90
5834;DHT22;2943;48.012;10.968;2023-07-29T06:42:17;17.10;99.90
5834;DHT22;2943;48.012;10.968;2023-07-29T06:44:44;17.10;99.90
5834;DHT22;2943;48.012;10.968;2023-07-29T06:47:11;17.20;99.90
5834;DHT22;2943;48.012;10.968;2023-07-29T06:49:39;17.20;99.90
5834;DHT22;2943;48.012;10.968;2023-07-29T06:52:06;17.20;99.90
5834;DHT22;2943;48.012;10.968;2023-07-29T06:54:33;17.20;99.90
5834;DHT22;2943;48.012;10.968;2023-07-29T06:57:00;17.20;99.90
5834;DHT22;2943;48.012;10.968;2023-07-29T06:59:26;17.20;99.90
5834;DHT22;2943;48.012;10.968;2023-07-29T07:01:53;17.30;99.90
5834;DHT22;2943;48.012;10.968;2023-07-29T07:04:20;17.30;99.90
5834;DHT22;2943;48.012;10.968;2023-07-29T07:06:48;17.40;99.90
5834;DHT22;2943;48.012;10.968;2023-07-29T07:09:14;17.40;99.90
5834;DHT22;2943;48.012;10.968;2023-07-29T07:11:41;17.40;99.90
5834;DHT22;2943;48.012;10.968;2023-07-29T07:14:08;17.50;99.90
5834;DHT22;2943;48.012;10.968;2023-07-29T07:16:34;17.60;99.90
5834;DHT22;2943;48.012;10.968;2023-07-29T07:19:02;17.60;99.90
5834;DHT22;2943;48.012;10.968;2023-07-29T07:21:28;17.60;99.90
5834;DHT22;2943;48.012;10.968;2023-07-29T07:23:57;17.70;99.90
5834;DHT22;2943;48.012;10.968;2023-07-29T07:26:23;17.70;99.90
5834;DHT22;2943;48.012;10.968;2023-07-29T07:28:50;17.70;99.90
5834;DHT22;2943;48.012;10.968;2023-07-29T07:31:17;17.80;99.90
5834;DHT22;2943;48.012;10.968;2023-07-29T07:33:44;17.80;99.90
5834;DHT22;2943;48.012;10.968;2023-07-29T07:36:11;17.90;99.90
5834;DHT22;2943;48.012;10.968;2023-07-29T07:38:37;17.90;99.90
5834;DHT22;2943;48.012;10.968;2023-07-29T07:41:08;18.00;99.90
5834;DHT22;2943;48.012;10.968;2023-07-29T07:43:34;18.00;99.90
5834;DHT22;2943;48.012;10.968;2023-07-29T07:46:01;18.10;99.90
5834;DHT22;2943;48.012;10.968;2023-07-29T07:48:28;18.10;99.90
5834;DHT22;2943;48.012;10.968;2023-07-29T07:50:55;18.10;99.90
5834;DHT22;2943;48.012;10.968;2023-07-29T07:53:21;18.20;99.90
5834;DHT22;2943;48.012;10.968;2023-07-29T07:55:51;18.30;99.90
5834;DHT22;2943;48.012;10.968;2023-07-29T07:58:19;18.40;99.90
5834;DHT22;2943;48.012;10.968;2023-07-29T08:00:45;18.50;99.90
5834;DHT22;2943;48.012;10.968;2023-07-29T08:03:12;18.50;99.90
5834;DHT22;2943;48.012;10.968;2023-07-29T08:05:39;18.60;99.90
5834;DHT22;2943;48.012;10.968;2023-07-29T08:08:05;18.60;99.90
5834;DHT22;2943;48.012;10.968;2023-07-29T08:10:32;18.70;99.90
5834;DHT22;2943;48.012;10.968;2023-07-29T08:12:59;18.80;99.90
5834;DHT22;2943;48.012;10.968;2023-07-29T08:15:27;18.90;99.90
5834;DHT22;2943;48.012;10.968;2023-07-29T08:17:54;19.00;99.90
5834;DHT22;2943;48.012;10.968;2023-07-29T08:20:20;19.00;99.90
5834;DHT22;2943;48.012;10.968;2023-07-29T08:22:47;19.10;99.90
5834;DHT22;2943;48.012;10.968;2023-07-29T08:25:13;19.20;99.90
5834;DHT22;2943;48.012;10.968;2023-07-29T08:27:40;19.30;99.90
5834;DHT22;2943;48.012;10.968;2023-07-29T08:30:07;19.40;99.90
5834;DHT22;2943;48.012;10.968;2023-07-29T08:32:35;19.40;99.90
5834;DHT22;2943;48.012;10.968;2023-07-29T08:35:02;19.60;99.90
5834;DHT22;2943;48.012;10.968;2023-07-29T08:37:29;19.60;99.90
5834;DHT22;2943;48.012;10.968;2023-07-29T08:39:56;19.70;99.90
5834;DHT22;2943;48.012;10.968;2023-07-29T08:42:23;19.70;99.90
5834;DHT22;2943;48.012;10.968;2023-07-29T08:44:54;19.80;99.90
5834;DHT22;2943;48.012;10.968;2023-07-29T08:47:21;19.80;99.90
5834;DHT22;2943;48.012;10.968;2023-07-29T08:49:49;19.80;99.90
5834;DHT22;2943;48.012;10.968;2023-07-29T08:52:17;19.90;99.90
5834;DHT22;2943;48.012;10.968;2023-07-29T08:54:44;19.90;99.90
5834;DHT22;2943;48.012;10.968;2023-07-29T08:57:11;20.10;99.90
5834;DHT22;2943;48.012;10.968;2023-07-29T08:59:38;20.20;99.90
5834;DHT22;2943;48.012;10.968;2023-07-29T09:02:05;20.30;99.90
5834;DHT22;2943;48.012;10.968;2023-07-29T09:04:33;20.50;99.90
5834;DHT22;2943;48.012;10.968;2023-07-29T09:07:01;20.60;99.90
5834;DHT22;2943;48.012;10.968;2023-07-29T09:09:28;20.80;99.90
5834;DHT22;2943;48.012;10.968;2023-07-29T09:11:55;21.00;99.90
5834;DHT22;2943;48.012;10.968;2023-07-29T09:14:22;21.10;99.90
5834;DHT22;2943;48.012;10.968;2023-07-29T09:16:49;21.30;99.90
5834;DHT22;2943;48.012;10.968;2023-07-29T09:19:16;21.50;99.90
5834;DHT22;2943;48.012;10.968;2023-07-29T09:21:43;21.50;99.90
5834;DHT22;2943;48.012;10.968;2023-07-29T09:24:14;21.60;99.90
5834;DHT22;2943;48.012;10.968;2023-07-29T09:26:47;21.80;99.90
5834;DHT22;2943;48.012;10.968;2023-07-29T09:29:14;22.00;99.90
5834;DHT22;2943;48.012;10.968;2023-07-29T09:31:41;22.20;99.90
5834;DHT22;2943;48.012;10.968;2023-07-29T09:34:08;22.30;99.90
5834;DHT22;2943;48.012;10.968;2023-07-29T09:36:34;22.40;99.90
5834;DHT22;2943;48.012;10.968;2023-07-29T09:39:01;22.50;99.90
5834;DHT22;2943;48.012;10.968;2023-07-29T09:41:30;22.60;99.90
5834;DHT22;2943;48.012;10.968;2023-07-29T09:43:57;22.60;99.90
5834;DHT22;2943;48.012;10.968;2023-07-29T09:46:25;22.70;99.90
5834;DHT22;2943;48.012;10.968;2023-07-29T09:48:53;22.80;99.90
5834;DHT22;2943;48.012;10.968;2023-07-29T09:51:20;22.80;99.90
5834;DHT22;2943;48.012;10.968;2023-07-29T09:53:47;22.90;99.90
5834;DHT22;2943;48.012;10.968;2023-07-29T09:56:14;23.00;99.90
5834;DHT22;2943;48.012;10.968;2023-07-29T09:58:43;23.20;99.90
5834;DHT22;2943;48.012;10.968;2023-07-29T10:01:11;23.30;99.90
5834;DHT22;2943;48.012;10.968;2023-07-29T10:03:37;23.40;99.90
5834;DHT22;2943;48.012;10.968;2023-07-29T10:06:05;23.40;99.90
5834;DHT22;2943;48.012;10.968;2023-07-29T10:08:32;23.50;99.90
5834;DHT22;2943;48.012;10.968;2023-07-29T10:11:01;23.60;99.90
5834;DHT22;2943;48.012;10.968;2023-07-29T10:13:27;23.70;99.90
5834;DHT22;2943;48.012;10.968;2023-07-29T10:15:55;23.80;99.90
5834;DHT22;2943;48.012;10.968;2023-07-29T10:18:23;23.90;99.90
5834;DHT22;2943;48.012;10.968;2023-07-29T10:20:50;24.00;99.90
5834;DHT22;2943;48.012;10.968;2023-07-29T10:23:17;24.10;99.90
5834;DHT22;2943;48.012;10.968;2023-07-29T10:25:46;24.10;99.90
5834;DHT22;2943;48.012;10.968;2023-07-29T10:28:14;24.10;99.90
5834;DHT22;2943;48.012;10.968;2023-07-29T10:30:41;24.10;99.90
5834;DHT22;2943;48.012;10.968;2023-07-29T10:33:10;24.00;99.90
5834;DHT22;2943;48.012;10.968;2023-07-29T10:35:36;24.00;99.90
5834;DHT22;2943;48.012;10.968;2023-07-29T10:38:04;24.00;99.90
5834;DHT22;2943;48.012;10.968;2023-07-29T10:40:44;24.00;99.90
5834;DHT22;2943;48.012;10.968;2023-07-29T10:43:11;24.00;99.90
5834;DHT22;2943;48.012;10.968;2023-07-29T10:45:40;24.10;99.90
5834;DHT22;2943;48.012;10.968;2023-07-29T10:48:09;24.20;99.90
5834;DHT22;2943;48.012;10.968;2023-07-29T10:50:36;24.20;99.90
5834;DHT22;2943;48.012;10.968;2023-07-29T10:53:04;24.30;99.90
5834;DHT22;2943;48.012;10.968;2023-07-29T10:55:31;24.30;99.90
5834;DHT22;2943;48.012;10.968;2023-07-29T11:00:49;24.30;99.90
5834;DHT22;2943;48.012;10.968;2023-07-29T11:03:17;24.20;99.90
5834;DHT22;2943;48.012;10.968;2023-07-29T11:05:45;24.30;99.90
5834;DHT22;2943;48.012;10.968;2023-07-29T11:08:22;24.30;99.90
5834;DHT22;2943;48.012;10.968;2023-07-29T11:11:02;24.40;99.90
5834;DHT22;2943;48.012;10.968;2023-07-29T11:13:30;24.50;99.90
5834;DHT22;2943;48.012;10.968;2023-07-29T11:15:57;24.70;99.90
5834;DHT22;2943;48.012;10.968;2023-07-29T11:18:28;24.80;99.90
5834;DHT22;2943;48.012;10.968;2023-07-29T11:20:55;25.00;99.90
5834;DHT22;2943;48.012;10.968;2023-07-29T11:23:27;25.20;99.90
5834;DHT22;2943;48.012;10.968;2023-07-29T11:25:54;25.40;99.90
5834;DHT22;2943;48.012;10.968;2023-07-29T11:28:20;25.60;99.90
5834;DHT22;2943;48.012;10.968;2023-07-29T11:30:49;25.80;99.90
5834;DHT22;2943;48.012;10.968;2023-07-29T11:33:16;25.90;99.90
5834;DHT22;2943;48.012;10.968;2023-07-29T11:35:45;26.10;99.90
5834;DHT22;2943;48.012;10.968;2023-07-29T11:38:14;26.30;99.90
5834;DHT22;2943;48.012;10.968;2023-07-29T11:40:41;26.30;99.90
5834;DHT22;2943;48.012;10.968;2023-07-29T11:43:08;26.40;99.90
5834;DHT22;2943;48.012;10.968;2023-07-29T11:45:34;26.40;99.90
5834;DHT22;2943;48.012;10.968;2023-07-29T11:48:01;26.40;99.90
5834;DHT22;2943;48.012;10.968;2023-07-29T11:50:27;26.40;99.90
5834;DHT22;2943;48.012;10.968;2023-07-29T11:52:56;26.40;99.90
5834;DHT22;2943;48.012;10.968;2023-07-29T11:55:22;26.50;99.90
5834;DHT22;2943;48.012;10.968;2023-07-29T11:57:50;26.50;99.90
5834;DHT22;2943;48.012;10.968;2023-07-29T12:00:17;26.70;99.90
5834;DHT22;2943;48.012;10.968;2023-07-29T12:02:44;26.70;99.90
5834;DHT22;2943;48.012;10.968;2023-07-29T12:05:11;26.80;99.90
5834;DHT22;2943;48.012;10.968;2023-07-29T12:07:38;26.90;99.90
5834;DHT22;2943;48.012;10.968;2023-07-29T12:10:07;27.00;99.90
5834;DHT22;2943;48.012;10.968;2023-07-29T12:12:37;27.00;99.90
5834;DHT22;2943;48.012;10.968;2023-07-29T12:15:04;26.90;99.90
5834;DHT22;2943;48.012;10.968;2023-07-29T12:17:31;26.80;99.90
5834;DHT22;2943;48.012;10.968;2023-07-29T12:19:58;26.80;99.90
5834;DHT22;2943;48.012;10.968;2023-07-29T12:22:25;26.80;99.90
5834;DHT22;2943;48.012;10.968;2023-07-29T12:24:52;26.80;99.90
5834;DHT22;2943;48.012;10.968;2023-07-29T12:27:21;26.70;99.90
5834;DHT22;2943;48.012;10.968;2023-07-29T12:29:48;26.60;99.90
5834;DHT22;2943;48.012;10.968;2023-07-29T12:32:19;26.60;99.90
5834;DHT22;2943;48.012;10.968;2023-07-29T12:34:46;26.70;99.90
5834;DHT22;2943;48.012;10.968;2023-07-29T12:37:13;26.70;99.90
5834;DHT22;2943;48.012;10.968;2023-07-29T12:39:40;26.70;99.90
5834;DHT22;2943;48.012;10.968;2023-07-29T12:42:06;26.70;99.90
5834;DHT22;2943;48.012;10.968;2023-07-29T12:44:35;26.80;99.90
5834;DHT22;2943;48.012;10.968;2023-07-29T12:47:02;26.70;99.90
5834;DHT22;2943;48.012;10.968;2023-07-29T12:49:30;26.40;99.90
5834;DHT22;2943;48.012;10.968;2023-07-29T12:51:57;26.10;99.90
5834;DHT22;2943;48.012;10.968;2023-07-29T12:54:23;25.80;99.90
5834;DHT22;2943;48.012;10.968;2023-07-29T12:56:50;25.70;99.90
5834;DHT22;2943;48.012;10.968;2023-07-29T12:59:17;25.60;99.90
5834;DHT22;2943;48.012;10.968;2023-07-29T13:01:45;25.50;99.90
5834;DHT22;2943;48.012;10.968;2023-07-29T13:04:12;25.50;99.90
5834;DHT22;2943;48.012;10.968;2023-07-29T13:06:39;25.50;99.90
5834;DHT22;2943;48.012;10.968;2023-07-29T13:09:05;25.40;99.90
5834;DHT22;2943;48.012;10.968;2023-07-29T13:11:32;25.40;99.90
5834;DHT22;2943;48.012;10.968;2023-07-29T13:13:59;25.30;99.90
5834;DHT22;2943;48.012;10.968;2023-07-29T13:16:27;25.10;99.90
5834;DHT22;2943;48.012;10.968;2023-07-29T13:18:55;24.90;99.90
5834;DHT22;2943;48.012;10.968;2023-07-29T13:21:22;24.60;99.90
5834;DHT22;2943;48.012;10.968;2023-07-29T13:23:48;24.40;99.90
5834;DHT22;2943;48.012;10.968;2023-07-29T13:26:15;24.20;99.90
5834;DHT22;2943;48.012;10.968;2023-07-29T13:28:42;24.00;99.90
5834;DHT22;2943;48.012;10.968;2023-07-29T13:31:08;24.00;99.90
5834;DHT22;2943;48.012;10.968;2023-07-29T13:33:35;24.00;99.90
5834;DHT22;2943;48.012;10.968;2023-07-29T13:36:05;24.10;99.90
5834;DHT22;2943;48.012;10.968;2023-07-29T13:38:33;24.10;99.90
5834;DHT22;2943;48.012;10.968;2023-07-29T13:41:00;24.10;99.90
5834;DHT22;2943;48.012;10.968;2023-07-29T13:43:26;24.00;99.90
5834;DHT22;2943;48.012;10.968;2023-07-29T13:45:53;24.00;99.90
5834;DHT22;2943;48.012;10.968;2023-07-29T13:48:20;23.90;99.90
5834;DHT22;2943;48.012;10.968;2023-07-29T13:50:46;23.80;99.90
5834;DHT22;2943;48.012;10.968;2023-07-29T13:53:14;23.70;99.90
5834;DHT22;2943;48.012;10.968;2023-07-29T13:55:41;23.60;99.90
5834;DHT22;2943;48.012;10.968;2023-07-29T13:58:08;23.60;99.90
5834;DHT22;2943;48.012;10.968;2023-07-29T14:00:34;23.50;99.90
5834;DHT22;2943;48.012;10.968;2023-07-29T14:03:01;23.40;99.90
5834;DHT22;2943;48.012;10.968;2023-07-29T14:05:28;23.30;99.90
5834;DHT22;2943;48.012;10.968;2023-07-29T14:07:54;23.20;99.90
5834;DHT22;2943;48.012;10.968;2023-07-29T14:10:23;23.10;99.90
5834;DHT22;2943;48.012;10.968;2023-07-29T14:12:50;23.10;99.90
5834;DHT22;2943;48.012;10.968;2023-07-29T14:15:17;23.00;99.90
5834;DHT22;2943;48.012;10.968;2023-07-29T14:17:43;22.90;99.90
5834;DHT22;2943;48.012;10.968;2023-07-29T14:20:10;22.60;99.90
5834;DHT22;2943;48.012;10.968;2023-07-29T14:22:37;22.40;99.90
5834;DHT22;2943;48.012;10.968;2023-07-29T14:25:04;22.30;99.90
5834;DHT22;2943;48.012;10.968;2023-07-29T14:27:32;22.10;99.90
5834;DHT22;2943;48.012;10.968;2023-07-29T14:29:59;22.00;99.90
5834;DHT22;2943;48.012;10.968;2023-07-29T14:32:27;22.00;99.90
5834;DHT22;2943;48.012;10.968;2023-07-29T14:34:53;22.00;99.90
5834;DHT22;2943;48.012;10.968;2023-07-29T14:37:20;21.90;99.90
5834;DHT22;2943;48.012;10.968;2023-07-29T14:39:47;21.90;99.90
5834;DHT22;2943;48.012;10.968;2023-07-29T14:42:13;21.90;99.90
5834;DHT22;2943;48.012;10.968;2023-07-29T14:44:41;21.80;99.90
5834;DHT22;2943;48.012;10.968;2023-07-29T14:47:08;21.80;99.90
5834;DHT22;2943;48.012;10.968;2023-07-29T14:49:35;21.80;99.90
5834;DHT22;2943;48.012;10.968;2023-07-29T14:52:02;21.80;99.90
5834;DHT22;2943;48.012;10.968;2023-07-29T14:54:29;21.80;99.90
5834;DHT22;2943;48.012;10.968;2023-07-29T14:56:55;21.80;99.90
5834;DHT22;2943;48.012;10.968;2023-07-29T14:59:22;21.90;99.90
5834;DHT22;2943;48.012;10.968;2023-07-29T15:01:50;21.90;99.90
5834;DHT22;2943;48.012;10.968;2023-07-29T15:04:17;21.90;99.90
5834;DHT22;2943;48.012;10.968;2023-07-29T15:06:43;21.90;99.90
5834;DHT22;2943;48.012;10.968;2023-07-29T15:09:11;21.90;99.90
5834;DHT22;2943;48.012;10.968;2023-07-29T15:11:37;21.90;99.90
5834;DHT22;2943;48.012;10.968;2023-07-29T15:14:04;21.90;99.90
5834;DHT22;2943;48.012;10.968;2023-07-29T15:16:31;22.00;99.90
5834;DHT22;2943;48.012;10.968;2023-07-29T15:19:01;22.00;99.90
5834;DHT22;2943;48.012;10.968;2023-07-29T15:21:27;22.00;99.90
5834;DHT22;2943;48.012;10.968;2023-07-29T15:23:54;22.00;99.90
5834;DHT22;2943;48.012;10.968;2023-07-29T15:26:21;22.10;99.90
5834;DHT22;2943;48.012;10.968;2023-07-29T15:28:47;22.10;99.90
5834;DHT22;2943;48.012;10.968;2023-07-29T15:31:14;22.10;99.90
5834;DHT22;2943;48.012;10.968;2023-07-29T15:33:41;22.10;99.90
5834;DHT22;2943;48.012;10.968;2023-07-29T15:36:09;22.10;99.90
5834;DHT22;2943;48.012;10.968;2023-07-29T15:38:36;22.10;99.90
5834;DHT22;2943;48.012;10.968;2023-07-29T15:41:03;22.10;99.90
5834;DHT22;2943;48.012;10.968;2023-07-29T15:43:29;22.10;99.90
5834;DHT22;2943;48.012;10.968;2023-07-29T15:45:56;22.10;99.90
5834;DHT22;2943;48.012;10.968;2023-07-29T15:48:23;22.10;99.90